Time;durP1;ratioP1;P1;durP2;ratioP2;P2;SDS_P1;SDS_P2;PMS_P1;PMS_P2;Temp;Humidity;BMP_temperature;BMP_pressure;BME280_temperature;BME280_humidity;BME280_pressure;Samples;Min_cycle;Max_cycle;Signal;HPM_P1;HPM_P2
2021/05/08 00:00:28;;;;;;;9.73;6.12;;;;;;;12.45;98.73;98017.34;1792885;79;21319;-62
2021/05/08 00:02:55;;;;;;;8.23;5.03;;;;;;;12.44;98.67;98026.40;1793174;80;21759;-62
2021/05/08 00:05:23;;;;;;;8.10;4.75;;;;;;;12.43;98.63;98022.11;1793390;80;21162;-61
2021/05/08 00:07:52;;;;;;;7.05;4.80;;;;;;;12.44;98.61;98018.63;1793117;80;21588;-67
2021/05/08 00:10:21;;;;;;;7.15;4.87;;;;;;;12.44;98.52;98002.70;1793310;80;21252;-63
2021/05/08 00:12:48;;;;;;;8.90;4.95;;;;;;;12.45;98.45;97985.44;1793292;80;21276;-64
2021/05/08 00:15:17;;;;;;;8.40;5.10;;;;;;;12.45;98.47;97985.44;1793362;80;21375;-62
2021/05/08 00:17:45;;;;;;;6.95;5.05;;;;;;;12.45;98.35;97988.02;1793089;80;21291;-64
2021/05/08 00:20:16;;;;;;;9.85;4.70;;;;;;;12.38;98.09;97990.66;1793190;80;21300;-61
2021/05/08 00:22:43;;;;;;;7.60;4.85;;;;;;;12.37;98.01;97995.87;1793090;80;21193;-64
2021/05/08 00:25:12;;;;;;;10.25;4.62;;;;;;;12.37;97.90;98004.48;1793118;78;21307;-63
2021/05/08 00:27:39;;;;;;;6.72;4.72;;;;;;;12.36;97.85;98007.96;1793060;80;21145;-61
2021/05/08 00:30:09;;;;;;;7.22;4.25;;;;;;;12.38;97.75;98011.36;1793063;78;21147;-64
2021/05/08 00:32:36;;;;;;;11.10;5.15;;;;;;;12.40;97.63;98006.63;1793350;79;21528;-63
2021/05/08 00:35:05;;;;;;;9.05;4.97;;;;;;;12.37;97.45;97985.52;1793466;79;21178;-65
2021/05/08 00:37:33;;;;;;;7.45;5.30;;;;;;;12.36;97.49;97983.38;1793083;80;21142;-61
2021/05/08 00:40:04;;;;;;;6.58;4.35;;;;;;;12.34;97.38;97981.69;1793064;79;21616;-62
2021/05/08 00:42:32;;;;;;;8.75;5.37;;;;;;;12.31;97.32;97981.29;1793314;79;21280;-61
2021/05/08 00:45:00;;;;;;;7.33;4.67;;;;;;;12.31;97.49;97978.70;1775451;80;21158;-62
2021/05/08 00:47:28;;;;;;;10.00;5.15;;;;;;;12.34;97.40;97976.52;1793428;79;21277;-64
2021/05/08 00:49:56;;;;;;;10.03;5.70;;;;;;;12.34;97.36;97984.27;1793317;80;21355;-64
2021/05/08 00:52:25;;;;;;;8.15;4.90;;;;;;;12.30;97.35;97971.80;1793107;78;21313;-65
2021/05/08 00:54:55;;;;;;;6.87;4.45;;;;;;;12.27;97.35;97960.20;1793206;79;21561;-63
2021/05/08 00:57:25;;;;;;;8.13;5.15;;;;;;;12.25;97.40;97958.06;1790662;80;21182;-62
2021/05/08 00:59:53;;;;;;;8.48;5.12;;;;;;;12.23;97.44;97954.62;1779486;79;21167;-63
2021/05/08 01:02:21;;;;;;;8.30;4.90;;;;;;;12.23;97.46;97954.62;1779478;80;21364;-64
2021/05/08 01:04:50;;;;;;;9.08;5.00;;;;;;;12.24;97.58;97960.24;1768587;81;21112;-62
2021/05/08 01:07:19;;;;;;;8.63;5.65;;;;;;;12.26;97.69;97957.62;1779301;81;21167;-64
2021/05/08 01:09:47;;;;;;;11.05;6.40;;;;;;;12.28;97.52;97958.02;1779271;81;21140;-63
2021/05/08 01:12:15;;;;;;;8.58;5.90;;;;;;;12.29;97.43;97959.75;1779303;81;21151;-64
2021/05/08 01:14:45;;;;;;;7.15;5.55;;;;;;;12.27;97.35;97973.58;1779245;80;21175;-62
2021/05/08 01:17:15;;;;;;;8.33;5.42;;;;;;;12.28;97.42;97989.06;1768655;79;21545;-61
2021/05/08 01:19:44;;;;;;;8.98;5.50;;;;;;;12.29;97.35;97991.23;1779498;80;21233;-61
2021/05/08 01:22:12;;;;;;;9.03;5.00;;;;;;;12.31;97.29;97990.75;1779474;80;21152;-63
2021/05/08 01:24:40;;;;;;;6.78;4.62;;;;;;;12.33;97.25;97981.25;1779212;79;21143;-63
2021/05/08 01:27:07;;;;;;;7.53;5.10;;;;;;;12.34;97.11;97981.69;1779283;80;21139;-62
2021/05/08 01:29:36;;;;;;;7.50;5.60;;;;;;;12.30;96.97;97988.61;1779148;79;21308;-61
2021/05/08 01:32:05;;;;;;;9.03;5.50;;;;;;;12.30;97.08;98000.25;1779514;80;21281;-64
2021/05/08 01:34:33;;;;;;;8.08;5.85;;;;;;;12.28;97.12;97998.11;1779332;81;21374;-62
2021/05/08 01:37:02;;;;;;;8.23;5.25;;;;;;;12.29;97.09;97977.01;1779550;79;21150;-62
2021/05/08 01:39:30;;;;;;;10.03;5.35;;;;;;;12.29;97.04;97975.27;1779373;81;21135;-62
2021/05/08 01:41:59;;;;;;;9.48;5.08;;;;;;;12.27;96.97;97978.30;1779313;80;21147;-64
2021/05/08 01:44:27;;;;;;;7.33;4.97;;;;;;;12.28;97.00;97983.88;1779371;81;21272;-61
2021/05/08 01:46:55;;;;;;;8.20;5.30;;;;;;;12.28;96.95;97990.80;1779190;79;21157;-65
2021/05/08 01:49:26;;;;;;;10.20;6.00;;;;;;;12.28;96.97;97983.03;1778871;79;21218;-63
2021/05/08 01:51:54;;;;;;;9.28;6.15;;;;;;;12.30;96.96;97985.17;1724802;82;21305;-63
2021/05/08 01:54:23;;;;;;;14.83;5.80;;;;;;;12.28;96.80;97996.82;1805802;79;21313;-63
2021/05/08 01:56:51;;;;;;;7.83;5.60;;;;;;;12.22;96.84;98000.78;1742339;82;21150;-63
2021/05/08 01:59:21;;;;;;;9.75;6.00;;;;;;;12.14;97.00;97998.72;1818184;79;21291;-64
2021/05/08 02:01:49;;;;;;;8.95;5.97;;;;;;;12.07;97.14;97987.58;1819623;79;21127;-65
2021/05/08 02:04:17;;;;;;;8.83;6.20;;;;;;;12.05;97.33;97996.23;1819873;79;21401;-62
2021/05/08 02:06:49;;;;;;;8.33;5.70;;;;;;;12.05;97.55;98005.28;1787998;79;21771;-60
2021/05/08 02:09:23;;;;;;;8.58;5.70;;;;;;;12.05;97.63;98001.40;1813094;79;21147;-66
2021/05/08 02:12:00;;;;;;;11.28;6.47;;;;;;;12.11;97.79;97985.39;1870604;76;22227;-63
2021/05/08 02:14:28;;;;;;;10.55;6.75;;;;;;;12.10;97.88;97984.10;1808864;78;21114;-61
2021/05/08 02:16:56;;;;;;;9.80;6.90;;;;;;;12.13;97.87;97991.81;1795310;80;21142;-60
2021/05/08 02:19:24;;;;;;;11.03;5.97;;;;;;;12.14;97.92;97987.09;1804848;77;21131;-62
2021/05/08 02:21:52;;;;;;;12.90;6.65;;;;;;;12.17;97.83;97998.69;1823676;77;21219;-63
2021/05/08 02:24:20;;;;;;;11.48;7.05;;;;;;;12.14;97.80;97998.72;1812743;78;21129;-64
2021/05/08 02:26:48;;;;;;;10.23;6.20;;;;;;;12.14;97.83;97996.14;1805455;78;21103;-62
2021/05/08 02:29:15;;;;;;;9.10;5.83;;;;;;;12.14;97.86;97988.37;1814072;78;21153;-65
2021/05/08 02:31:44;;;;;;;11.83;6.80;;;;;;;12.15;97.82;97993.52;1795291;80;21134;-61
2021/05/08 02:34:12;;;;;;;13.80;10.32;;;;;;;12.18;97.81;97993.92;1795245;79;21308;-62
2021/05/08 02:36:40;;;;;;;16.67;12.40;;;;;;;12.20;97.78;97993.47;1775521;80;21280;-65
2021/05/08 02:39:07;;;;;;;20.60;13.50;;;;;;;12.21;97.68;97990.00;1795336;80;21276;-61
2021/05/08 02:41:35;;;;;;;17.82;13.18;;;;;;;12.19;97.41;97989.19;1795310;80;21146;-62
2021/05/08 02:44:04;;;;;;;11.22;8.48;;;;;;;12.18;97.42;97993.06;1795314;79;21150;-62
2021/05/08 02:46:32;;;;;;;11.88;7.45;;;;;;;12.15;97.39;97987.49;1810069;78;21292;-62
2021/05/08 02:49:00;;;;;;;10.72;6.75;;;;;;;12.14;97.40;97979.33;1804148;78;21291;-65
2021/05/08 02:51:28;;;;;;;8.70;5.83;;;;;;;12.13;97.37;97974.56;1795409;79;21209;-62
2021/05/08 02:53:56;;;;;;;9.40;6.25;;;;;;;12.14;97.36;97974.16;1808499;78;21288;-62
2021/05/08 02:56:24;;;;;;;8.13;5.85;;;;;;;12.14;97.34;97978.03;1827762;78;21277;-65
2021/05/08 02:58:52;;;;;;;8.05;5.30;;;;;;;12.14;97.34;97985.80;1827142;77;21216;-61
2021/05/08 03:01:21;;;;;;;8.58;5.22;;;;;;;12.15;97.25;97988.78;1827230;77;21316;-61
2021/05/08 03:03:49;;;;;;;10.45;5.35;;;;;;;12.14;97.14;97988.37;1827750;78;21153;-64
2021/05/08 03:06:16;;;;;;;7.33;4.78;;;;;;;12.12;97.18;97983.21;1827863;78;21264;-62
2021/05/08 03:08:45;;;;;;;7.65;5.17;;;;;;;12.12;97.21;97981.06;1827509;77;21288;-61
2021/05/08 03:11:14;;;;;;;9.30;5.75;;;;;;;12.14;97.20;97972.86;1827733;77;21300;-64
2021/05/08 03:13:46;;;;;;;9.70;6.28;;;;;;;12.13;97.16;97960.78;1828007;78;21600;-63
2021/05/08 03:16:14;;;;;;;11.28;5.53;;;;;;;12.09;97.09;97952.22;1828055;77;21135;-65
2021/05/08 03:18:42;;;;;;;9.38;5.30;;;;;;;12.01;97.07;97954.45;1828118;78;21130;-63
2021/05/08 03:21:10;;;;;;;7.92;5.03;;;;;;;11.86;97.15;97957.64;1827868;78;21129;-65
2021/05/08 03:23:38;;;;;;;9.88;5.85;;;;;;;11.74;97.35;97970.20;1827197;77;21938;-64
2021/05/08 03:26:06;;;;;;;10.58;5.92;;;;;;;11.72;97.67;97978.41;1809173;78;21134;-63
2021/05/08 03:28:35;;;;;;;8.40;5.65;;;;;;;11.78;97.87;97985.69;1827183;78;21281;-63
2021/05/08 03:31:03;;;;;;;9.13;5.35;;;;;;;11.82;97.93;97980.47;1827164;77;21304;-61
2021/05/08 03:33:31;;;;;;;13.20;6.90;;;;;;;11.86;97.85;97975.73;1827545;78;21125;-64
2021/05/08 03:36:00;;;;;;;9.50;6.17;;;;;;;11.92;97.91;97969.64;1827402;78;21288;-63
2021/05/08 03:38:28;;;;;;;10.13;6.22;;;;;;;11.96;97.83;97970.04;1827308;78;21123;-62
2021/05/08 03:40:55;;;;;;;8.30;5.78;;;;;;;11.99;97.84;97973.88;1827492;78;21276;-64
2021/05/08 03:43:23;;;;;;;9.08;6.65;;;;;;;12.01;97.66;97971.26;1827187;78;21150;-62
2021/05/08 03:45:50;;;;;;;10.23;6.65;;;;;;;12.03;97.66;97980.71;1827432;77;21119;-61
2021/05/08 03:48:18;;;;;;;9.83;6.58;;;;;;;12.06;97.58;97978.53;1827512;77;21292;-65
2021/05/08 03:50:47;;;;;;;10.72;6.35;;;;;;;12.08;97.57;97978.94;1827368;78;21130;-63
2021/05/08 03:53:16;;;;;;;12.90;6.15;;;;;;;12.14;97.58;97973.71;1827220;77;21150;-63
2021/05/08 03:55:44;;;;;;;8.48;5.90;;;;;;;12.21;97.47;97971.89;1827412;77;21348;-64
2021/05/08 03:58:12;;;;;;;9.68;5.72;;;;;;;12.27;97.26;97966.66;1827452;78;21150;-63
2021/05/08 04:00:40;;;;;;;10.43;5.87;;;;;;;12.31;97.10;97967.06;1827491;78;21235;-64
2021/05/08 04:03:08;;;;;;;9.18;5.62;;;;;;;12.35;96.95;97975.19;1827370;78;21142;-64
2021/05/08 04:05:35;;;;;;;10.95;5.62;;;;;;;12.40;96.73;97979.45;1827361;78;21269;-63
2021/05/08 04:08:03;;;;;;;9.13;5.67;;;;;;;12.41;96.54;97984.59;1827389;78;21289;-66
2021/05/08 04:10:31;;;;;;;9.30;5.90;;;;;;;12.47;96.45;97981.10;1827217;78;21344;-66
2021/05/08 04:12:59;;;;;;;8.95;6.00;;;;;;;12.54;96.40;97986.18;1827152;78;21138;-63
2021/05/08 04:15:27;;;;;;;12.33;6.97;;;;;;;12.64;96.08;97993.36;1827168;77;21280;-65
2021/05/08 04:17:55;;;;;;;9.83;6.25;;;;;;;12.70;95.72;97990.72;1827524;78;21113;-63
2021/05/08 04:20:22;;;;;;;12.60;6.85;;;;;;;12.72;95.36;97992.85;1827406;78;21273;-66
2021/05/08 04:22:50;;;;;;;10.75;6.45;;;;;;;12.74;95.06;97998.84;1827141;78;21150;-64
2021/05/08 04:25:18;;;;;;;9.30;6.40;;;;;;;12.74;95.03;98007.89;1827339;78;21296;-64
2021/05/08 04:27:48;;;;;;;9.83;6.85;;;;;;;12.78;94.91;98010.03;1827140;78;21107;-66
2021/05/08 04:30:17;;;;;;;10.25;6.92;;;;;;;12.67;94.36;98002.41;1827103;78;21304;-64
2021/05/08 04:32:45;;;;;;;9.88;6.87;;;;;;;12.46;94.56;98005.25;1827376;77;21147;-63
2021/05/08 04:35:13;;;;;;;10.72;7.20;;;;;;;12.27;94.81;98013.23;1827212;77;21292;-68
2021/05/08 04:37:41;;;;;;;11.10;8.08;;;;;;;12.20;95.29;98023.22;1827114;77;21095;-64
2021/05/08 04:40:10;;;;;;;8.70;6.85;;;;;;;12.13;95.53;98028.03;1827477;77;21273;-62
2021/05/08 04:42:38;;;;;;;8.75;6.37;;;;;;;12.15;95.56;98021.97;1827095;78;21576;-66
2021/05/08 04:45:08;;;;;;;12.45;7.53;;;;;;;12.09;95.16;98034.97;1827394;78;21305;-66
2021/05/08 04:47:35;;;;;;;10.75;7.78;;;;;;;12.10;95.53;98030.66;1827380;77;21667;-64
2021/05/08 04:50:04;;;;;;;10.85;6.80;;;;;;;12.13;95.26;98028.03;1827079;78;21131;-64
2021/05/08 04:52:32;;;;;;;9.30;6.45;;;;;;;12.10;94.48;98011.25;1827392;78;21158;-65
2021/05/08 04:54:59;;;;;;;9.45;6.78;;;;;;;12.00;94.60;98022.56;1827128;78;21268;-66
2021/05/08 04:57:27;;;;;;;11.80;7.55;;;;;;;11.93;94.96;98021.76;1827134;78;21289;-63
2021/05/08 04:59:56;;;;;;;9.95;5.97;;;;;;;11.92;94.91;98033.84;1827113;77;21147;-66
2021/05/08 05:02:23;;;;;;;8.43;5.97;;;;;;;11.87;94.75;98030.88;1827307;78;21087;-64
2021/05/08 05:04:51;;;;;;;13.08;6.90;;;;;;;11.81;94.54;98045.13;1827307;78;21142;-67
2021/05/08 05:07:19;;;;;;;10.28;7.12;;;;;;;11.80;94.81;98037.78;1827113;77;21130;-64
2021/05/08 05:09:47;;;;;;;11.05;6.42;;;;;;;11.79;94.68;98041.25;1827023;77;21304;-67
2021/05/08 05:12:16;;;;;;;11.63;7.08;;;;;;;11.74;94.70;98044.31;1816738;78;21281;-64
2021/05/08 05:14:43;;;;;;;9.10;6.53;;;;;;;11.68;94.69;98052.13;1812704;79;21131;-66
2021/05/08 05:17:11;;;;;;;9.83;7.28;;;;;;;11.64;94.53;98050.43;1812686;79;21143;-61
2021/05/08 05:19:39;;;;;;;8.05;5.83;;;;;;;11.62;94.62;98050.43;1812998;78;21127;-64
2021/05/08 05:22:06;;;;;;;9.10;6.65;;;;;;;11.62;94.47;98047.00;1812965;78;21297;-63
2021/05/08 05:24:34;;;;;;;14.70;6.53;;;;;;;11.62;94.60;98048.28;1812711;78;21119;-65
2021/05/08 05:27:01;;;;;;;9.05;5.83;;;;;;;11.65;94.55;98044.38;1812953;79;21300;-66
2021/05/08 05:29:29;;;;;;;7.87;5.78;;;;;;;11.64;94.32;98049.14;1813086;79;21150;-63
2021/05/08 05:31:56;;;;;;;7.90;5.20;;;;;;;11.65;94.17;98050.43;1812733;78;21273;-63
2021/05/08 05:34:24;;;;;;;8.65;5.75;;;;;;;11.63;93.57;98057.77;1812941;79;21277;-62
2021/05/08 05:36:52;;;;;;;9.23;5.87;;;;;;;11.55;93.15;98067.28;1812738;78;21382;-63
2021/05/08 05:39:20;;;;;;;6.67;4.65;;;;;;;11.54;93.41;98064.29;1813024;78;21143;-65
2021/05/08 05:41:48;;;;;;;8.80;4.87;;;;;;;11.55;92.90;98056.95;1801553;79;21128;-66
2021/05/08 05:44:16;;;;;;;6.25;3.80;;;;;;;11.50;92.18;98053.98;1812998;78;21123;-65
2021/05/08 05:46:44;;;;;;;6.87;4.10;;;;;;;11.41;91.38;98050.16;1812959;79;21281;-63
2021/05/08 05:49:12;;;;;;;6.60;3.50;;;;;;;11.41;91.62;98056.63;1813048;78;21158;-65
2021/05/08 05:51:40;;;;;;;5.85;3.92;;;;;;;11.44;91.48;98055.30;1812880;78;21266;-65
2021/05/08 05:54:08;;;;;;;6.80;3.62;;;;;;;11.44;91.03;98051.43;1813094;78;21139;-66
2021/05/08 05:56:36;;;;;;;7.53;3.62;;;;;;;11.37;90.97;98045.02;1812983;79;21278;-64
2021/05/08 05:59:03;;;;;;;6.33;3.50;;;;;;;11.30;91.20;98053.27;1812743;79;21262;-65
2021/05/08 06:01:31;;;;;;;5.72;3.45;;;;;;;11.21;91.30;98059.33;1813038;78;21273;-67
2021/05/08 06:03:59;;;;;;;6.30;3.47;;;;;;;11.20;91.74;98060.66;1813026;78;21343;-65
2021/05/08 06:06:27;;;;;;;4.85;3.47;;;;;;;11.22;91.89;98053.32;1812721;79;21127;-66
2021/05/08 06:08:55;;;;;;;6.53;3.33;;;;;;;11.20;91.62;98065.82;1813074;79;21281;-63
2021/05/08 06:11:23;;;;;;;5.03;3.25;;;;;;;11.20;91.95;98070.98;1812841;78;21351;-64
2021/05/08 06:13:51;;;;;;;5.95;3.08;;;;;;;11.16;92.06;98080.45;1812709;78;21285;-66
2021/05/08 06:16:19;;;;;;;4.22;2.55;;;;;;;11.09;92.25;98086.52;1812709;79;21130;-64
2021/05/08 06:18:48;;;;;;;5.15;2.95;;;;;;;10.92;91.88;98086.61;1812720;78;21138;-66
2021/05/08 06:21:16;;;;;;;5.35;2.65;;;;;;;10.76;92.33;98087.53;1812912;79;21146;-64
2021/05/08 06:23:44;;;;;;;9.70;3.05;;;;;;;10.70;92.87;98090.14;1812926;78;21244;-66
2021/05/08 06:26:12;;;;;;;5.40;2.75;;;;;;;10.69;93.26;98084.57;1812899;79;21139;-66
2021/05/08 06:28:39;;;;;;;4.75;3.08;;;;;;;10.67;93.36;98098.75;1813017;78;21676;-67
2021/05/08 06:31:06;;;;;;;4.65;2.80;;;;;;;10.62;93.71;98098.77;1812949;78;21649;-67
2021/05/08 06:33:34;;;;;;;6.70;2.83;;;;;;;10.58;93.93;98101.35;1812888;79;21135;-64
2021/05/08 06:36:03;;;;;;;5.72;3.80;;;;;;;10.59;94.18;98109.09;1812965;79;21147;-65
2021/05/08 06:38:30;;;;;;;4.78;3.25;;;;;;;10.56;94.30;98107.83;1812691;78;21151;-67
2021/05/08 06:40:59;;;;;;;6.50;3.25;;;;;;;10.58;94.56;98112.56;1812991;78;21100;-67
2021/05/08 06:43:26;;;;;;;8.23;3.50;;;;;;;10.62;94.92;98109.08;1812694;78;21139;-66
2021/05/08 06:45:54;;;;;;;5.70;3.98;;;;;;;10.67;95.19;98109.52;1812883;78;21506;-65
2021/05/08 06:48:22;;;;;;;5.62;3.80;;;;;;;10.69;95.10;98106.50;1812732;79;21585;-67
2021/05/08 06:50:52;;;;;;;6.28;3.62;;;;;;;10.69;95.04;98107.36;1812581;79;21116;-67
2021/05/08 06:53:20;;;;;;;5.78;3.67;;;;;;;10.64;94.78;98108.66;1812708;78;21280;-64
2021/05/08 06:55:47;;;;;;;4.50;3.27;;;;;;;10.60;95.01;98118.55;1812989;78;21261;-65
2021/05/08 06:58:15;;;;;;;6.00;4.28;;;;;;;10.55;94.94;98115.12;1813034;79;21126;-63
2021/05/08 07:00:42;;;;;;;7.15;3.55;;;;;;;10.53;95.09;98119.86;1813160;78;21159;-64
2021/05/08 07:03:10;;;;;;;6.15;3.80;;;;;;;10.56;95.25;98122.02;1812877;79;21100;-64
2021/05/08 07:05:37;;;;;;;4.70;3.52;;;;;;;10.55;95.24;98125.44;1812846;78;21134;-67
2021/05/08 07:08:08;;;;;;;7.65;4.58;;;;;;;10.49;95.23;98138.80;1813048;78;21301;-67
2021/05/08 07:10:47;;;;;;;5.65;3.30;;;;;;;10.50;95.43;98136.64;1813126;79;21182;-63
2021/05/08 07:13:15;;;;;;;7.22;3.20;;;;;;;10.49;95.74;98146.10;1825685;77;21170;-64
2021/05/08 07:15:47;;;;;;;5.35;3.10;;;;;;;10.34;95.87;98134.52;1826381;77;21133;-66
2021/05/08 07:18:16;;;;;;;6.20;3.37;;;;;;;10.12;95.99;98151.25;1809282;78;21130;-65
2021/05/08 07:20:44;;;;;;;5.45;2.87;;;;;;;9.92;96.13;98134.93;1827189;78;21147;-67
2021/05/08 07:23:12;;;;;;;7.42;3.42;;;;;;;9.68;95.96;98154.67;1827449;78;21296;-66
2021/05/08 07:25:40;;;;;;;7.45;3.27;;;;;;;9.51;96.78;98174.39;1827388;78;21143;-68
2021/05/08 07:28:15;;;;;;;8.20;3.50;;;;;;;9.40;97.14;98167.08;1827169;78;21110;-65
2021/05/08 07:30:45;;;;;;;5.53;3.45;;;;;;;9.30;97.24;98170.89;1827383;77;21312;-69
2021/05/08 07:33:15;;;;;;;4.42;3.00;;;;;;;9.20;97.50;98187.59;1827200;77;21126;-68
2021/05/08 07:35:45;;;;;;;7.58;3.67;;;;;;;9.13;97.85;98204.31;1827427;77;21146;-67
2021/05/08 07:38:15;;;;;;;6.08;3.92;;;;;;;9.16;98.37;98207.33;1827344;78;21143;-67
2021/05/08 07:40:44;;;;;;;8.15;4.40;;;;;;;9.18;97.80;98212.03;1827256;78;21142;-65
2021/05/08 07:43:11;;;;;;;10.28;5.65;;;;;;;9.23;97.22;98218.50;1827494;78;21153;-70
2021/05/08 07:45:39;;;;;;;9.18;4.55;;;;;;;9.18;95.97;98217.18;1827382;78;21335;-66
2021/05/08 07:48:08;;;;;;;5.58;4.00;;;;;;;9.05;95.22;98225.70;1827178;77;21103;-67
2021/05/08 07:50:36;;;;;;;9.15;5.15;;;;;;;8.96;95.64;98219.25;1827400;78;21261;-65
2021/05/08 07:53:05;;;;;;;6.95;4.65;;;;;;;8.87;95.84;98226.47;1827138;78;21154;-65
2021/05/08 07:55:33;;;;;;;7.20;4.80;;;;;;;8.82;95.96;98247.45;1827164;78;21679;-62
2021/05/08 07:58:08;;;;;;;7.35;4.55;;;;;;;8.83;96.27;98252.62;1827535;77;21671;-65
2021/05/08 08:00:36;;;;;;;7.10;4.50;;;;;;;8.85;96.72;98257.35;1827280;78;21268;-64
2021/05/08 08:03:05;;;;;;;7.00;4.33;;;;;;;8.70;94.89;98264.94;1827304;77;21280;-65
2021/05/08 08:05:34;;;;;;;7.08;4.80;;;;;;;8.54;94.85;98255.41;1825224;78;21126;-67
2021/05/08 08:08:02;;;;;;;7.80;4.55;;;;;;;8.42;95.01;98255.75;1827413;78;21309;-65
2021/05/08 08:10:30;;;;;;;7.85;4.83;;;;;;;8.35;95.36;98246.23;1827368;78;21281;-67
2021/05/08 08:13:01;;;;;;;8.10;5.12;;;;;;;8.33;95.41;98273.63;1827045;78;21146;-64
2021/05/08 08:15:29;;;;;;;8.10;5.53;;;;;;;8.35;95.68;98291.65;1827390;78;21138;-65
2021/05/08 08:17:56;;;;;;;6.87;5.47;;;;;;;8.48;95.64;98287.08;1827344;77;21272;-67
2021/05/08 08:20:24;;;;;;;7.53;5.25;;;;;;;8.60;95.24;98276.01;1827149;77;21095;-66
2021/05/08 08:22:52;;;;;;;6.75;4.80;;;;;;;8.69;94.25;98274.38;1827258;78;21135;-70
2021/05/08 08:25:19;;;;;;;5.70;3.87;;;;;;;8.73;93.55;98274.39;1827302;77;21276;-67
2021/05/08 08:27:47;;;;;;;6.10;4.70;;;;;;;8.82;92.69;98288.19;1827150;78;21253;-64
2021/05/08 08:30:15;;;;;;;7.10;4.08;;;;;;;8.97;92.93;98298.16;1827394;78;21857;-64
2021/05/08 08:32:43;;;;;;;5.92;4.17;;;;;;;9.08;92.32;98299.07;1827121;77;21151;-68
2021/05/08 08:35:11;;;;;;;6.95;4.65;;;;;;;9.16;92.47;98296.54;1827453;78;21269;-67
2021/05/08 08:37:38;;;;;;;9.63;5.08;;;;;;;9.18;92.29;98299.56;1827408;77;21151;-69
2021/05/08 08:40:08;;;;;;;7.00;4.00;;;;;;;9.12;92.08;98315.84;1827236;78;21122;-67
2021/05/08 08:42:37;;;;;;;6.08;3.87;;;;;;;9.13;91.49;98276.80;1827149;78;21154;-64
2021/05/08 08:45:06;;;;;;;7.53;3.77;;;;;;;9.04;91.00;98305.07;1827411;77;21151;-67
2021/05/08 08:47:35;;;;;;;6.72;4.08;;;;;;;8.94;90.14;98301.56;1827352;78;21177;-68
2021/05/08 08:50:11;;;;;;;6.22;4.22;;;;;;;8.80;90.76;98314.35;1827038;78;21711;-66
2021/05/08 08:52:40;;;;;;;8.30;3.90;;;;;;;8.86;90.84;98313.09;1827123;78;21676;-70
2021/05/08 08:55:10;;;;;;;4.58;2.98;;;;;;;8.96;90.52;98306.73;1827440;77;21103;-66
2021/05/08 08:57:41;;;;;;;7.35;3.17;;;;;;;9.03;89.04;98309.77;1827310;77;21268;-68
2021/05/08 09:00:14;;;;;;;6.10;3.60;;;;;;;8.98;88.70;98311.45;1827726;78;21151;-67
2021/05/08 09:02:45;;;;;;;5.42;3.27;;;;;;;9.00;88.93;98319.61;1827110;78;21158;-68
2021/05/08 09:05:16;;;;;;;6.05;3.20;;;;;;;9.11;89.15;98318.42;1827111;78;21151;-69
2021/05/08 09:07:46;;;;;;;8.33;2.70;;;;;;;9.14;88.18;98322.30;1827185;78;21166;-70
2021/05/08 09:10:27;;;;;;;6.08;3.02;;;;;;;9.20;87.59;98332.61;1827187;77;21289;-65
2021/05/08 09:13:02;;;;;;;4.83;2.80;;;;;;;9.23;87.44;98328.77;1809913;78;21174;-68
2021/05/08 09:15:40;;;;;;;5.17;2.92;;;;;;;9.31;87.26;98334.84;1812326;78;21289;-69
2021/05/08 09:18:12;;;;;;;4.90;2.62;;;;;;;9.37;86.65;98345.60;1812993;79;21281;-67
2021/05/08 09:20:50;;;;;;;6.00;2.45;;;;;;;9.42;85.93;98349.50;1811469;78;21150;-64
2021/05/08 09:23:27;;;;;;;5.55;2.60;;;;;;;9.41;85.12;98345.18;1812991;79;21225;-65
2021/05/08 09:26:10;;;;;;;4.28;2.20;;;;;;;9.36;84.96;98347.72;1812671;78;21261;-69
2021/05/08 09:28:41;;;;;;;5.33;2.15;;;;;;;9.37;84.61;98346.89;1812810;79;21537;-67
2021/05/08 09:31:13;;;;;;;5.03;2.45;;;;;;;9.46;84.37;98331.91;1812658;78;21131;-67
2021/05/08 09:33:51;;;;;;;4.67;2.45;;;;;;;9.49;83.75;98342.21;1811339;78;21288;-68
2021/05/08 09:36:19;;;;;;;3.50;2.00;;;;;;;9.69;82.53;98330.31;1813026;78;21143;-65
2021/05/08 09:38:47;;;;;;;3.67;2.15;;;;;;;10.06;81.64;98352.34;1812713;79;21092;-64
2021/05/08 09:41:19;;;;;;;7.30;2.00;;;;;;;10.27;80.17;98344.23;1812936;79;21355;-65
2021/05/08 09:43:47;;;;;;;3.20;1.80;;;;;;;10.26;78.83;98341.23;1812859;78;21567;-68
2021/05/08 09:46:27;;;;;;;4.80;2.17;;;;;;;10.10;78.60;98332.17;1812944;78;21103;-64
2021/05/08 09:49:16;;;;;;;4.17;1.60;;;;;;;9.94;77.31;98361.31;1812735;79;21206;-66
2021/05/08 09:51:44;;;;;;;3.22;1.27;;;;;;;9.94;77.61;98306.75;1812872;79;21185;-64
2021/05/08 09:54:18;;;;;;;4.60;1.42;;;;;;;9.70;74.60;98356.94;1813006;79;21134;-68
2021/05/08 09:56:49;;;;;;;3.05;1.70;;;;;;;9.58;75.18;98343.56;1828115;78;21131;-69
2021/05/08 09:59:40;;;;;;;3.90;1.60;;;;;;;9.56;75.28;98356.85;1812899;78;21143;-68
2021/05/08 10:02:12;;;;;;;3.10;1.70;;;;;;;9.64;76.02;98366.80;1812713;78;21112;-65
2021/05/08 10:04:47;;;;;;;4.67;1.80;;;;;;;9.63;76.10;98354.75;1812231;78;21284;-66
2021/05/08 10:07:26;;;;;;;5.50;1.70;;;;;;;9.50;76.23;98369.28;1812630;78;21084;-64
2021/05/08 10:09:58;;;;;;;4.17;1.80;;;;;;;9.50;76.96;98374.86;1812811;78;21285;-67
2021/05/08 10:12:29;;;;;;;3.67;1.87;;;;;;;9.49;77.41;98382.13;1812804;78;21683;-66
2021/05/08 10:14:58;;;;;;;4.85;1.85;;;;;;;9.46;77.34;98389.84;1813137;78;21660;-63
2021/05/08 10:17:28;;;;;;;3.33;1.80;;;;;;;9.51;77.54;98370.13;1812663;78;21293;-63
2021/05/08 10:20:09;;;;;;;3.72;2.00;;;;;;;9.62;77.42;98389.53;1812678;78;21099;-65
2021/05/08 10:22:59;;;;;;;4.67;2.05;;;;;;;9.69;77.38;98392.16;1811614;78;21107;-64
2021/05/08 10:25:28;;;;;;;4.05;1.80;;;;;;;9.75;78.04;98408.92;1781132;80;21126;-66
2021/05/08 10:27:56;;;;;;;4.03;2.65;;;;;;;9.84;77.56;98414.97;1802576;79;21099;-65
2021/05/08 10:30:44;;;;;;;3.08;1.50;;;;;;;9.86;77.08;98422.28;1802591;79;21292;-66
2021/05/08 10:33:19;;;;;;;2.90;1.75;;;;;;;9.73;76.16;98419.64;1790830;79;21155;-65
2021/05/08 10:35:51;;;;;;;3.47;1.77;;;;;;;9.61;77.12;98407.11;1800656;79;21146;-64
2021/05/08 10:38:23;;;;;;;7.37;2.12;;;;;;;9.49;77.32;98405.31;1812235;78;21285;-65
2021/05/08 10:40:59;;;;;;;3.15;1.70;;;;;;;9.37;77.86;98422.00;1804819;79;21625;-65
2021/05/08 10:43:42;;;;;;;4.97;1.90;;;;;;;9.26;78.79;98400.02;1798125;79;21545;-59
2021/05/08 10:46:12;;;;;;;4.37;1.75;;;;;;;9.19;79.24;98410.71;1781202;80;21261;-59
2021/05/08 10:49:00;;;;;;;4.85;1.70;;;;;;;9.10;79.37;98407.63;1786580;78;21116;-58
2021/05/08 10:51:58;;;;;;;4.33;1.75;;;;;;;9.05;80.14;98421.31;1790967;79;21105;-55
2021/05/08 10:54:44;;;;;;;4.00;1.57;;;;;;;8.99;80.90;98435.43;1845132;76;22203;-56
2021/05/08 10:57:15;;;;;;;2.83;1.57;;;;;;;8.80;81.47;98440.41;1822042;78;21093;-56
2021/05/08 11:00:09;;;;;;;3.22;1.62;;;;;;;8.73;82.50;98445.45;1823811;78;21124;-54
2021/05/08 11:02:47;;;;;;;2.67;1.75;;;;;;;8.78;83.43;98451.11;1815410;77;21124;-55
2021/05/08 11:05:39;;;;;;;2.77;1.52;;;;;;;8.74;83.18;98456.20;1822082;77;21119;-54
2021/05/08 11:08:28;;;;;;;3.80;2.02;;;;;;;8.68;83.62;98464.73;1824851;78;21280;-57
2021/05/08 11:11:02;;;;;;;3.50;1.77;;;;;;;8.56;84.43;98469.73;1815987;78;21206;-57
2021/05/08 11:13:45;;;;;;;3.22;1.60;;;;;;;8.37;85.26;98461.78;1824442;78;21211;-54
2021/05/08 11:16:15;;;;;;;;;;;;;;;8.16;84.47;98464.94;1820504;78;21167;-56
2021/05/08 11:18:48;;;;;;;3.47;1.72;;;;;;;8.01;85.15;98429.66;1824044;78;20144;-55
2021/05/08 11:21:22;;;;;;;2.80;1.60;;;;;;;7.97;85.19;98471.56;1785783;78;21111;-55
2021/05/08 11:24:08;;;;;;;3.33;1.70;;;;;;;7.90;85.50;98461.19;1827078;77;21210;-54
2021/05/08 11:26:41;;;;;;;4.58;1.77;;;;;;;7.82;86.10;98505.61;1823371;77;21341;-57
2021/05/08 11:29:26;;;;;;;3.67;1.70;;;;;;;7.81;86.61;98501.33;1820818;78;21182;-55
2021/05/08 11:32:01;;;;;;;3.77;1.57;;;;;;;8.02;84.25;98475.05;1797800;78;21165;-57
2021/05/08 11:34:32;;;;;;;5.12;2.00;;;;;;;8.26;81.91;98514.77;1816521;78;21187;-55
2021/05/08 11:37:11;;;;;;;6.65;1.87;;;;;;;8.50;81.03;98527.11;1827524;78;21735;-55
2021/05/08 11:39:42;;;;;;;4.22;2.05;;;;;;;8.54;76.46;98488.99;1827507;78;21131;-56
2021/05/08 11:42:21;;;;;;;4.47;1.62;;;;;;;8.50;75.02;98536.51;1813319;78;21132;-55
2021/05/08 11:45:02;;;;;;;3.30;1.30;;;;;;;8.42;72.71;98519.30;1810002;78;21123;-58
2021/05/08 11:47:32;;;;;;;3.25;1.62;;;;;;;8.45;71.12;98548.91;1797147;78;21641;-57